sensor_id;sensor_type;location;lat;lon;timestamp;temperature;humidity
38428;DHT22;24211;49.980;19.776;2024-02-16T00:00:14;7.00;99.90
38428;DHT22;24211;49.980;19.776;2024-02-16T00:03:03;6.90;99.90
38428;DHT22;24211;49.980;19.776;2024-02-16T00:05:31;6.90;99.90
38428;DHT22;24211;49.980;19.776;2024-02-16T00:07:59;6.90;99.90
38428;DHT22;24211;49.980;19.776;2024-02-16T00:10:28;6.80;99.90
38428;DHT22;24211;49.980;19.776;2024-02-16T00:12:56;6.80;99.90
38428;DHT22;24211;49.980;19.776;2024-02-16T00:15:24;6.80;99.90
38428;DHT22;24211;49.980;19.776;2024-02-16T00:17:54;6.80;99.90
38428;DHT22;24211;49.980;19.776;2024-02-16T00:20:22;6.70;99.90
38428;DHT22;24211;49.980;19.776;2024-02-16T00:22:53;6.70;99.90
38428;DHT22;24211;49.980;19.776;2024-02-16T00:25:34;6.70;99.90
38428;DHT22;24211;49.980;19.776;2024-02-16T00:28:01;6.60;99.90
38428;DHT22;24211;49.980;19.776;2024-02-16T00:30:35;6.60;99.90
38428;DHT22;24211;49.980;19.776;2024-02-16T00:33:09;6.60;99.90
38428;DHT22;24211;49.980;19.776;2024-02-16T00:35:38;6.50;99.90
38428;DHT22;24211;49.980;19.776;2024-02-16T00:38:05;6.50;99.90
38428;DHT22;24211;49.980;19.776;2024-02-16T00:40:34;6.50;99.90
38428;DHT22;24211;49.980;19.776;2024-02-16T00:43:11;6.50;99.90
38428;DHT22;24211;49.980;19.776;2024-02-16T00:45:38;6.40;99.90
38428;DHT22;24211;49.980;19.776;2024-02-16T00:48:10;6.40;99.90
38428;DHT22;24211;49.980;19.776;2024-02-16T00:50:38;6.40;99.90
38428;DHT22;24211;49.980;19.776;2024-02-16T00:53:05;6.40;99.90
38428;DHT22;24211;49.980;19.776;2024-02-16T00:55:53;6.40;99.90
38428;DHT22;24211;49.980;19.776;2024-02-16T00:58:25;6.30;99.90
38428;DHT22;24211;49.980;19.776;2024-02-16T01:00:55;6.30;99.90
38428;DHT22;24211;49.980;19.776;2024-02-16T01:03:43;6.20;99.90
38428;DHT22;24211;49.980;19.776;2024-02-16T01:06:11;6.20;99.90
38428;DHT22;24211;49.980;19.776;2024-02-16T01:12:10;6.10;99.90
38428;DHT22;24211;49.980;19.776;2024-02-16T01:14:38;6.10;99.90
38428;DHT22;24211;49.980;19.776;2024-02-16T01:17:10;6.00;99.90
38428;DHT22;24211;49.980;19.776;2024-02-16T01:19:38;6.00;99.90
38428;DHT22;24211;49.980;19.776;2024-02-16T01:22:08;6.00;99.90
38428;DHT22;24211;49.980;19.776;2024-02-16T01:24:35;6.00;99.90
38428;DHT22;24211;49.980;19.776;2024-02-16T01:27:03;6.00;99.90
38428;DHT22;24211;49.980;19.776;2024-02-16T01:29:37;6.00;99.90
38428;DHT22;24211;49.980;19.776;2024-02-16T01:32:06;6.00;99.90
38428;DHT22;24211;49.980;19.776;2024-02-16T01:34:33;5.90;99.90
38428;DHT22;24211;49.980;19.776;2024-02-16T01:37:02;5.90;99.90
38428;DHT22;24211;49.980;19.776;2024-02-16T01:39:36;5.90;99.90
38428;DHT22;24211;49.980;19.776;2024-02-16T01:42:04;5.90;99.90
38428;DHT22;24211;49.980;19.776;2024-02-16T01:44:32;5.90;99.90
38428;DHT22;24211;49.980;19.776;2024-02-16T01:47:05;5.90;99.90
38428;DHT22;24211;49.980;19.776;2024-02-16T01:49:39;5.80;99.90
38428;DHT22;24211;49.980;19.776;2024-02-16T01:52:07;5.80;99.90
38428;DHT22;24211;49.980;19.776;2024-02-16T01:54:34;5.80;99.90
38428;DHT22;24211;49.980;19.776;2024-02-16T01:57:01;5.80;99.90
38428;DHT22;24211;49.980;19.776;2024-02-16T01:59:43;5.70;99.90
38428;DHT22;24211;49.980;19.776;2024-02-16T02:02:13;5.70;99.90
38428;DHT22;24211;49.980;19.776;2024-02-16T02:04:41;5.70;99.90
38428;DHT22;24211;49.980;19.776;2024-02-16T02:07:14;5.70;99.90
38428;DHT22;24211;49.980;19.776;2024-02-16T02:09:42;5.70;99.90
38428;DHT22;24211;49.980;19.776;2024-02-16T02:12:15;5.70;99.90
38428;DHT22;24211;49.980;19.776;2024-02-16T02:15:00;5.60;99.90
38428;DHT22;24211;49.980;19.776;2024-02-16T02:17:49;5.60;99.90
38428;DHT22;24211;49.980;19.776;2024-02-16T02:20:32;5.60;99.90
38428;DHT22;24211;49.980;19.776;2024-02-16T02:23:01;5.60;99.90
38428;DHT22;24211;49.980;19.776;2024-02-16T02:26:23;5.50;99.90
38428;DHT22;24211;49.980;19.776;2024-02-16T02:28:50;5.50;99.90
38428;DHT22;24211;49.980;19.776;2024-02-16T02:31:20;5.50;99.90
38428;DHT22;24211;49.980;19.776;2024-02-16T02:33:47;5.50;99.90
38428;DHT22;24211;49.980;19.776;2024-02-16T02:37:03;5.50;99.90
38428;DHT22;24211;49.980;19.776;2024-02-16T02:39:34;5.50;99.90
38428;DHT22;24211;49.980;19.776;2024-02-16T02:42:01;5.50;99.90
38428;DHT22;24211;49.980;19.776;2024-02-16T02:44:29;5.50;99.90
38428;DHT22;24211;49.980;19.776;2024-02-16T02:46:58;5.50;99.90
38428;DHT22;24211;49.980;19.776;2024-02-16T02:49:46;5.50;99.90
38428;DHT22;24211;49.980;19.776;2024-02-16T02:52:43;5.40;99.90
38428;DHT22;24211;49.980;19.776;2024-02-16T02:55:12;5.50;99.90
38428;DHT22;24211;49.980;19.776;2024-02-16T02:57:59;5.40;99.90
38428;DHT22;24211;49.980;19.776;2024-02-16T03:00:42;5.40;99.90
38428;DHT22;24211;49.980;19.776;2024-02-16T03:03:11;5.40;99.90
38428;DHT22;24211;49.980;19.776;2024-02-16T03:06:03;5.40;99.90
38428;DHT22;24211;49.980;19.776;2024-02-16T03:08:31;5.40;99.90
38428;DHT22;24211;49.980;19.776;2024-02-16T03:18:07;5.30;99.90
38428;DHT22;24211;49.980;19.776;2024-02-16T03:20:36;5.30;99.90
38428;DHT22;24211;49.980;19.776;2024-02-16T03:23:12;5.30;99.90
38428;DHT22;24211;49.980;19.776;2024-02-16T03:25:39;5.30;99.90
38428;DHT22;24211;49.980;19.776;2024-02-16T03:28:13;5.30;99.90
38428;DHT22;24211;49.980;19.776;2024-02-16T03:34:27;5.30;99.90
38428;DHT22;24211;49.980;19.776;2024-02-16T03:36:54;5.30;99.90
38428;DHT22;24211;49.980;19.776;2024-02-16T03:42:40;5.30;99.90
38428;DHT22;24211;49.980;19.776;2024-02-16T03:45:16;5.30;99.90
38428;DHT22;24211;49.980;19.776;2024-02-16T03:47:47;5.30;99.90
38428;DHT22;24211;49.980;19.776;2024-02-16T03:50:20;5.20;99.90
38428;DHT22;24211;49.980;19.776;2024-02-16T03:52:47;5.20;99.90
38428;DHT22;24211;49.980;19.776;2024-02-16T03:55:27;5.20;99.90
38428;DHT22;24211;49.980;19.776;2024-02-16T03:57:56;5.20;99.90
38428;DHT22;24211;49.980;19.776;2024-02-16T04:00:32;5.20;99.90
38428;DHT22;24211;49.980;19.776;2024-02-16T04:03:09;5.20;99.90
38428;DHT22;24211;49.980;19.776;2024-02-16T04:05:44;5.10;99.90
38428;DHT22;24211;49.980;19.776;2024-02-16T04:08:13;5.10;99.90
38428;DHT22;24211;49.980;19.776;2024-02-16T04:10:41;5.20;99.90
38428;DHT22;24211;49.980;19.776;2024-02-16T04:13:09;5.10;99.90
38428;DHT22;24211;49.980;19.776;2024-02-16T04:15:36;5.20;99.90
38428;DHT22;24211;49.980;19.776;2024-02-16T04:18:05;5.20;99.90
38428;DHT22;24211;49.980;19.776;2024-02-16T04:20:39;5.20;99.90
38428;DHT22;24211;49.980;19.776;2024-02-16T04:23:08;5.20;99.90
38428;DHT22;24211;49.980;19.776;2024-02-16T04:25:35;5.10;99.90
38428;DHT22;24211;49.980;19.776;2024-02-16T04:28:02;5.10;99.90
38428;DHT22;24211;49.980;19.776;2024-02-16T04:30:30;5.10;99.90
38428;DHT22;24211;49.980;19.776;2024-02-16T04:32:57;5.10;99.90
38428;DHT22;24211;49.980;19.776;2024-02-16T04:35:25;5.10;99.90
38428;DHT22;24211;49.980;19.776;2024-02-16T04:37:53;5.10;99.90
38428;DHT22;24211;49.980;19.776;2024-02-16T04:40:20;5.10;99.90
38428;DHT22;24211;49.980;19.776;2024-02-16T04:42:48;5.10;99.90
38428;DHT22;24211;49.980;19.776;2024-02-16T04:45:15;5.10;99.90
38428;DHT22;24211;49.980;19.776;2024-02-16T04:47:43;5.10;99.90
38428;DHT22;24211;49.980;19.776;2024-02-16T04:50:10;5.10;99.90
38428;DHT22;24211;49.980;19.776;2024-02-16T04:52:38;5.10;99.90
38428;DHT22;24211;49.980;19.776;2024-02-16T04:55:07;5.00;99.90
38428;DHT22;24211;49.980;19.776;2024-02-16T04:57:34;5.00;99.90
38428;DHT22;24211;49.980;19.776;2024-02-16T05:00:03;5.00;99.90
38428;DHT22;24211;49.980;19.776;2024-02-16T05:02:30;5.00;99.90
38428;DHT22;24211;49.980;19.776;2024-02-16T05:05:08;5.00;99.90
38428;DHT22;24211;49.980;19.776;2024-02-16T05:07:41;5.00;99.90
38428;DHT22;24211;49.980;19.776;2024-02-16T05:10:14;5.00;99.90
38428;DHT22;24211;49.980;19.776;2024-02-16T05:12:42;5.00;99.90
38428;DHT22;24211;49.980;19.776;2024-02-16T05:15:11;5.00;99.90
38428;DHT22;24211;49.980;19.776;2024-02-16T05:17:55;5.00;99.90
38428;DHT22;24211;49.980;19.776;2024-02-16T05:20:26;5.00;99.90
38428;DHT22;24211;49.980;19.776;2024-02-16T05:23:03;5.00;99.90
38428;DHT22;24211;49.980;19.776;2024-02-16T05:25:32;5.00;99.90
38428;DHT22;24211;49.980;19.776;2024-02-16T05:27:59;4.90;99.90
38428;DHT22;24211;49.980;19.776;2024-02-16T05:30:29;4.90;99.90
38428;DHT22;24211;49.980;19.776;2024-02-16T05:32:57;4.90;99.90
38428;DHT22;24211;49.980;19.776;2024-02-16T05:35:52;4.90;99.90
38428;DHT22;24211;49.980;19.776;2024-02-16T05:38:25;4.90;99.90
38428;DHT22;24211;49.980;19.776;2024-02-16T05:41:05;4.90;99.90
38428;DHT22;24211;49.980;19.776;2024-02-16T05:43:57;4.90;99.90
38428;DHT22;24211;49.980;19.776;2024-02-16T05:46:24;4.80;99.90
38428;DHT22;24211;49.980;19.776;2024-02-16T05:49:06;4.90;99.90
38428;DHT22;24211;49.980;19.776;2024-02-16T05:51:57;4.90;99.90
38428;DHT22;24211;49.980;19.776;2024-02-16T05:54:47;4.80;99.90
38428;DHT22;24211;49.980;19.776;2024-02-16T05:57:30;4.80;99.90
38428;DHT22;24211;49.980;19.776;2024-02-16T05:59:58;4.80;99.90
38428;DHT22;24211;49.980;19.776;2024-02-16T06:02:28;4.80;99.90
38428;DHT22;24211;49.980;19.776;2024-02-16T06:08:39;4.80;99.90
38428;DHT22;24211;49.980;19.776;2024-02-16T06:11:08;4.70;99.90
38428;DHT22;24211;49.980;19.776;2024-02-16T06:13:36;4.70;99.90
38428;DHT22;24211;49.980;19.776;2024-02-16T06:16:06;4.70;99.90
38428;DHT22;24211;49.980;19.776;2024-02-16T06:18:47;4.70;99.90
38428;DHT22;24211;49.980;19.776;2024-02-16T06:21:42;4.70;99.90
38428;DHT22;24211;49.980;19.776;2024-02-16T06:24:09;4.70;99.90
38428;DHT22;24211;49.980;19.776;2024-02-16T06:26:41;4.70;99.90
38428;DHT22;24211;49.980;19.776;2024-02-16T06:29:52;4.80;99.90
38428;DHT22;24211;49.980;19.776;2024-02-16T06:32:27;4.80;99.90
38428;DHT22;24211;49.980;19.776;2024-02-16T06:34:56;4.80;99.90
38428;DHT22;24211;49.980;19.776;2024-02-16T06:37:23;4.80;99.90
38428;DHT22;24211;49.980;19.776;2024-02-16T06:39:54;4.80;99.90
38428;DHT22;24211;49.980;19.776;2024-02-16T06:42:21;4.80;99.90
38428;DHT22;24211;49.980;19.776;2024-02-16T06:44:57;4.80;99.90
38428;DHT22;24211;49.980;19.776;2024-02-16T06:47:24;4.80;99.90
38428;DHT22;24211;49.980;19.776;2024-02-16T06:49:58;4.80;99.90
38428;DHT22;24211;49.980;19.776;2024-02-16T06:52:26;4.80;99.90
38428;DHT22;24211;49.980;19.776;2024-02-16T06:54:54;4.80;99.90
38428;DHT22;24211;49.980;19.776;2024-02-16T06:57:25;4.80;99.90
38428;DHT22;24211;49.980;19.776;2024-02-16T06:59:58;4.90;99.90
38428;DHT22;24211;49.980;19.776;2024-02-16T07:02:25;4.90;99.90
38428;DHT22;24211;49.980;19.776;2024-02-16T07:05:17;4.90;99.90
38428;DHT22;24211;49.980;19.776;2024-02-16T07:07:45;4.90;99.90
38428;DHT22;24211;49.980;19.776;2024-02-16T07:10:12;4.90;99.90
38428;DHT22;24211;49.980;19.776;2024-02-16T07:13:15;4.90;99.90
38428;DHT22;24211;49.980;19.776;2024-02-16T07:15:42;5.00;99.90
38428;DHT22;24211;49.980;19.776;2024-02-16T07:18:13;5.10;99.90
38428;DHT22;24211;49.980;19.776;2024-02-16T07:20:51;5.10;99.90
38428;DHT22;24211;49.980;19.776;2024-02-16T07:23:20;5.10;99.90
38428;DHT22;24211;49.980;19.776;2024-02-16T07:25:47;5.20;99.90
38428;DHT22;24211;49.980;19.776;2024-02-16T07:28:15;5.20;99.90
38428;DHT22;24211;49.980;19.776;2024-02-16T07:30:45;5.30;99.90
38428;DHT22;24211;49.980;19.776;2024-02-16T07:33:12;5.30;99.90
38428;DHT22;24211;49.980;19.776;2024-02-16T07:35:43;5.40;99.90
38428;DHT22;24211;49.980;19.776;2024-02-16T07:38:15;5.40;99.90
38428;DHT22;24211;49.980;19.776;2024-02-16T07:40:44;5.60;99.90
38428;DHT22;24211;49.980;19.776;2024-02-16T07:43:13;5.60;99.90
38428;DHT22;24211;49.980;19.776;2024-02-16T07:45:40;5.60;99.90
38428;DHT22;24211;49.980;19.776;2024-02-16T07:48:08;5.70;99.90
38428;DHT22;24211;49.980;19.776;2024-02-16T07:50:35;5.80;99.90
38428;DHT22;24211;49.980;19.776;2024-02-16T07:53:03;5.80;99.90
38428;DHT22;24211;49.980;19.776;2024-02-16T07:56:05;5.90;99.90
38428;DHT22;24211;49.980;19.776;2024-02-16T07:58:43;6.00;99.90
38428;DHT22;24211;49.980;19.776;2024-02-16T08:01:14;6.20;99.90
38428;DHT22;24211;49.980;19.776;2024-02-16T08:03:44;6.40;99.90
38428;DHT22;24211;49.980;19.776;2024-02-16T08:06:18;6.50;99.90
38428;DHT22;24211;49.980;19.776;2024-02-16T08:09:00;6.50;99.90
38428;DHT22;24211;49.980;19.776;2024-02-16T08:11:28;6.60;99.90
38428;DHT22;24211;49.980;19.776;2024-02-16T08:14:20;6.70;99.90
38428;DHT22;24211;49.980;19.776;2024-02-16T08:16:48;6.80;99.90
38428;DHT22;24211;49.980;19.776;2024-02-16T08:19:52;6.90;99.90
38428;DHT22;24211;49.980;19.776;2024-02-16T08:22:24;7.00;99.90
38428;DHT22;24211;49.980;19.776;2024-02-16T08:24:51;7.10;99.90
38428;DHT22;24211;49.980;19.776;2024-02-16T08:27:44;7.20;99.90
38428;DHT22;24211;49.980;19.776;2024-02-16T08:30:28;7.30;99.90
38428;DHT22;24211;49.980;19.776;2024-02-16T08:36:17;7.60;99.90
38428;DHT22;24211;49.980;19.776;2024-02-16T08:38:45;7.90;99.90
38428;DHT22;24211;49.980;19.776;2024-02-16T08:41:22;8.00;99.90
38428;DHT22;24211;49.980;19.776;2024-02-16T08:43:52;8.30;99.90
38428;DHT22;24211;49.980;19.776;2024-02-16T08:46:44;8.40;99.90
38428;DHT22;24211;49.980;19.776;2024-02-16T08:53:52;8.70;99.90
38428;DHT22;24211;49.980;19.776;2024-02-16T08:56:46;8.90;99.90
38428;DHT22;24211;49.980;19.776;2024-02-16T08:59:15;9.10;99.90
38428;DHT22;24211;49.980;19.776;2024-02-16T09:02:22;9.20;99.90
38428;DHT22;24211;49.980;19.776;2024-02-16T09:04:50;9.40;99.90
38428;DHT22;24211;49.980;19.776;2024-02-16T09:07:47;9.50;99.90
38428;DHT22;24211;49.980;19.776;2024-02-16T09:13:40;9.90;99.90
38428;DHT22;24211;49.980;19.776;2024-02-16T09:16:35;10.10;99.90
38428;DHT22;24211;49.980;19.776;2024-02-16T09:19:03;10.20;99.90
38428;DHT22;24211;49.980;19.776;2024-02-16T09:21:31;10.30;99.90
38428;DHT22;24211;49.980;19.776;2024-02-16T09:24:14;10.40;99.90
38428;DHT22;24211;49.980;19.776;2024-02-16T09:26:58;10.50;99.90
38428;DHT22;24211;49.980;19.776;2024-02-16T09:29:49;10.90;99.90
38428;DHT22;24211;49.980;19.776;2024-02-16T09:32:16;11.00;99.90
38428;DHT22;24211;49.980;19.776;2024-02-16T09:34:43;11.10;99.90
38428;DHT22;24211;49.980;19.776;2024-02-16T09:37:11;11.10;99.90
38428;DHT22;24211;49.980;19.776;2024-02-16T09:39:39;11.20;99.90
38428;DHT22;24211;49.980;19.776;2024-02-16T09:42:34;11.40;99.90
38428;DHT22;24211;49.980;19.776;2024-02-16T09:45:24;11.50;99.90
38428;DHT22;24211;49.980;19.776;2024-02-16T09:48:07;11.60;99.90
38428;DHT22;24211;49.980;19.776;2024-02-16T09:50:37;11.90;99.90
38428;DHT22;24211;49.980;19.776;2024-02-16T09:53:17;12.00;99.90
38428;DHT22;24211;49.980;19.776;2024-02-16T09:55:55;12.20;99.90
38428;DHT22;24211;49.980;19.776;2024-02-16T09:58:28;12.30;99.90
38428;DHT22;24211;49.980;19.776;2024-02-16T10:00:59;12.40;99.90
38428;DHT22;24211;49.980;19.776;2024-02-16T10:03:53;12.50;99.90
38428;DHT22;24211;49.980;19.776;2024-02-16T10:06:20;12.60;99.90
38428;DHT22;24211;49.980;19.776;2024-02-16T10:09:26;12.70;99.90
38428;DHT22;24211;49.980;19.776;2024-02-16T10:12:08;12.80;99.90
38428;DHT22;24211;49.980;19.776;2024-02-16T10:14:56;13.00;99.90
38428;DHT22;24211;49.980;19.776;2024-02-16T10:17:26;13.10;99.90
38428;DHT22;24211;49.980;19.776;2024-02-16T10:24:05;13.30;99.90
38428;DHT22;24211;49.980;19.776;2024-02-16T10:26:36;13.50;99.90
38428;DHT22;24211;49.980;19.776;2024-02-16T10:30:10;13.60;99.90
38428;DHT22;24211;49.980;19.776;2024-02-16T10:32:43;13.70;99.90
38428;DHT22;24211;49.980;19.776;2024-02-16T10:35:49;13.90;99.90
38428;DHT22;24211;49.980;19.776;2024-02-16T10:38:25;14.00;99.90
38428;DHT22;24211;49.980;19.776;2024-02-16T10:40:54;14.20;99.90
38428;DHT22;24211;49.980;19.776;2024-02-16T10:43:24;14.20;99.90
38428;DHT22;24211;49.980;19.776;2024-02-16T10:46:33;14.30;99.90
38428;DHT22;24211;49.980;19.776;2024-02-16T10:49:28;14.40;99.90
38428;DHT22;24211;49.980;19.776;2024-02-16T10:52:01;14.70;99.90
38428;DHT22;24211;49.980;19.776;2024-02-16T10:55:09;14.80;99.90
38428;DHT22;24211;49.980;19.776;2024-02-16T10:57:40;14.90;99.90
38428;DHT22;24211;49.980;19.776;2024-02-16T11:00:09;15.00;99.90
38428;DHT22;24211;49.980;19.776;2024-02-16T11:02:58;15.10;99.90
38428;DHT22;24211;49.980;19.776;2024-02-16T11:05:54;15.20;99.90
38428;DHT22;24211;49.980;19.776;2024-02-16T11:08:28;15.30;99.90
38428;DHT22;24211;49.980;19.776;2024-02-16T11:11:22;15.30;99.90
38428;DHT22;24211;49.980;19.776;2024-02-16T11:13:55;15.30;99.90
38428;DHT22;24211;49.980;19.776;2024-02-16T11:16:23;15.40;99.90
38428;DHT22;24211;49.980;19.776;2024-02-16T11:19:17;15.60;99.90
38428;DHT22;24211;49.980;19.776;2024-02-16T11:21:58;15.80;99.90
38428;DHT22;24211;49.980;19.776;2024-02-16T11:24:33;15.80;99.90
38428;DHT22;24211;49.980;19.776;2024-02-16T11:27:04;16.00;99.90
38428;DHT22;24211;49.980;19.776;2024-02-16T11:29:42;16.10;99.90
38428;DHT22;24211;49.980;19.776;2024-02-16T11:32:13;16.10;99.90
38428;DHT22;24211;49.980;19.776;2024-02-16T11:35:16;16.20;99.90
38428;DHT22;24211;49.980;19.776;2024-02-16T11:37:52;16.20;99.90
38428;DHT22;24211;49.980;19.776;2024-02-16T11:40:30;16.20;99.90
38428;DHT22;24211;49.980;19.776;2024-02-16T11:43:23;16.30;99.90
38428;DHT22;24211;49.980;19.776;2024-02-16T11:45:54;16.50;99.90
38428;DHT22;24211;49.980;19.776;2024-02-16T11:48:29;16.60;99.90
38428;DHT22;24211;49.980;19.776;2024-02-16T11:51:03;16.70;99.90
38428;DHT22;24211;49.980;19.776;2024-02-16T11:54:14;16.80;99.90
38428;DHT22;24211;49.980;19.776;2024-02-16T11:57:08;16.80;99.90
38428;DHT22;24211;49.980;19.776;2024-02-16T11:59:39;16.80;99.90
38428;DHT22;24211;49.980;19.776;2024-02-16T12:02:16;16.80;99.90
38428;DHT22;24211;49.980;19.776;2024-02-16T12:05:21;16.90;99.90
38428;DHT22;24211;49.980;19.776;2024-02-16T12:07:48;16.80;99.90
38428;DHT22;24211;49.980;19.776;2024-02-16T12:10:17;16.80;99.90
38428;DHT22;24211;49.980;19.776;2024-02-16T12:12:44;17.00;99.90
38428;DHT22;24211;49.980;19.776;2024-02-16T12:15:12;17.10;99.90
38428;DHT22;24211;49.980;19.776;2024-02-16T12:17:41;17.20;99.90
38428;DHT22;24211;49.980;19.776;2024-02-16T12:20:12;17.20;99.90
38428;DHT22;24211;49.980;19.776;2024-02-16T12:22:42;17.30;99.90
38428;DHT22;24211;49.980;19.776;2024-02-16T12:25:13;17.50;99.90
38428;DHT22;24211;49.980;19.776;2024-02-16T12:27:51;17.50;99.90
38428;DHT22;24211;49.980;19.776;2024-02-16T12:30:23;17.40;99.90
38428;DHT22;24211;49.980;19.776;2024-02-16T12:33:01;17.50;99.90
38428;DHT22;24211;49.980;19.776;2024-02-16T12:35:33;17.50;99.90
38428;DHT22;24211;49.980;19.776;2024-02-16T12:38:01;17.50;99.90
38428;DHT22;24211;49.980;19.776;2024-02-16T12:40:42;17.50;99.90
38428;DHT22;24211;49.980;19.776;2024-02-16T12:43:10;17.80;99.90
38428;DHT22;24211;49.980;19.776;2024-02-16T12:45:38;17.90;99.90
38428;DHT22;24211;49.980;19.776;2024-02-16T12:48:05;17.90;99.90
38428;DHT22;24211;49.980;19.776;2024-02-16T12:50:39;17.90;99.90
38428;DHT22;24211;49.980;19.776;2024-02-16T12:53:09;18.00;99.90
38428;DHT22;24211;49.980;19.776;2024-02-16T12:55:38;18.00;99.90
38428;DHT22;24211;49.980;19.776;2024-02-16T12:58:05;18.00;99.90
38428;DHT22;24211;49.980;19.776;2024-02-16T13:00:32;17.90;99.90
38428;DHT22;24211;49.980;19.776;2024-02-16T13:03:02;17.90;99.90
38428;DHT22;24211;49.980;19.776;2024-02-16T13:05:30;17.80;99.90
38428;DHT22;24211;49.980;19.776;2024-02-16T13:08:08;17.70;99.90
38428;DHT22;24211;49.980;19.776;2024-02-16T13:10:36;17.70;99.90
38428;DHT22;24211;49.980;19.776;2024-02-16T13:13:03;17.70;99.90
38428;DHT22;24211;49.980;19.776;2024-02-16T13:15:35;17.70;99.90
38428;DHT22;24211;49.980;19.776;2024-02-16T13:18:08;17.80;99.90
38428;DHT22;24211;49.980;19.776;2024-02-16T13:20:41;17.50;99.90
38428;DHT22;24211;49.980;19.776;2024-02-16T13:23:08;17.70;99.90
38428;DHT22;24211;49.980;19.776;2024-02-16T13:25:38;17.60;99.90
38428;DHT22;24211;49.980;19.776;2024-02-16T13:28:05;17.80;99.90
38428;DHT22;24211;49.980;19.776;2024-02-16T13:30:32;18.10;99.90
38428;DHT22;24211;49.980;19.776;2024-02-16T13:33:04;18.20;99.90
38428;DHT22;24211;49.980;19.776;2024-02-16T13:35:36;18.20;99.90
38428;DHT22;24211;49.980;19.776;2024-02-16T13:38:04;18.00;99.90
38428;DHT22;24211;49.980;19.776;2024-02-16T13:40:32;17.80;99.90
38428;DHT22;24211;49.980;19.776;2024-02-16T13:43:20;17.50;99.90
38428;DHT22;24211;49.980;19.776;2024-02-16T13:45:58;17.50;99.90
38428;DHT22;24211;49.980;19.776;2024-02-16T13:48:37;17.30;99.90
38428;DHT22;24211;49.980;19.776;2024-02-16T13:51:31;17.10;99.90
38428;DHT22;24211;49.980;19.776;2024-02-16T13:53:59;16.90;99.90
38428;DHT22;24211;49.980;19.776;2024-02-16T13:56:29;16.80;99.90
38428;DHT22;24211;49.980;19.776;2024-02-16T13:59:24;17.10;99.90
38428;DHT22;24211;49.980;19.776;2024-02-16T14:01:56;17.10;99.90
38428;DHT22;24211;49.980;19.776;2024-02-16T14:04:36;17.20;99.90
38428;DHT22;24211;49.980;19.776;2024-02-16T14:07:07;17.30;99.90
38428;DHT22;24211;49.980;19.776;2024-02-16T14:09:46;17.30;99.90
38428;DHT22;24211;49.980;19.776;2024-02-16T14:12:19;17.50;99.90
38428;DHT22;24211;49.980;19.776;2024-02-16T14:14:47;17.70;99.90
38428;DHT22;24211;49.980;19.776;2024-02-16T14:17:15;17.60;99.90
38428;DHT22;24211;49.980;19.776;2024-02-16T14:20:11;17.30;99.90
38428;DHT22;24211;49.980;19.776;2024-02-16T14:22:44;17.50;99.90
38428;DHT22;24211;49.980;19.776;2024-02-16T14:25:31;17.30;99.90
38428;DHT22;24211;49.980;19.776;2024-02-16T14:27:59;17.00;99.90
38428;DHT22;24211;49.980;19.776;2024-02-16T14:30:26;17.00;99.90
38428;DHT22;24211;49.980;19.776;2024-02-16T14:33:29;17.20;99.90
38428;DHT22;24211;49.980;19.776;2024-02-16T14:36:02;17.30;99.90
38428;DHT22;24211;49.980;19.776;2024-02-16T14:38:43;17.50;99.90
38428;DHT22;24211;49.980;19.776;2024-02-16T14:41:36;17.50;99.90
38428;DHT22;24211;49.980;19.776;2024-02-16T14:44:04;16.90;99.90
38428;DHT22;24211;49.980;19.776;2024-02-16T14:47:00;16.70;99.90
38428;DHT22;24211;49.980;19.776;2024-02-16T14:49:56;16.60;99.90
38428;DHT22;24211;49.980;19.776;2024-02-16T14:52:23;16.70;99.90
38428;DHT22;24211;49.980;19.776;2024-02-16T14:54:51;16.60;99.90
38428;DHT22;24211;49.980;19.776;2024-02-16T15:00:44;16.80;99.90
38428;DHT22;24211;49.980;19.776;2024-02-16T15:03:54;16.70;99.90
38428;DHT22;24211;49.980;19.776;2024-02-16T15:06:30;16.60;99.90
38428;DHT22;24211;49.980;19.776;2024-02-16T15:09:00;16.40;99.90
38428;DHT22;24211;49.980;19.776;2024-02-16T15:11:28;16.40;99.90
38428;DHT22;24211;49.980;19.776;2024-02-16T15:13:55;16.30;99.90
38428;DHT22;24211;49.980;19.776;2024-02-16T15:16:22;16.30;99.90
38428;DHT22;24211;49.980;19.776;2024-02-16T15:18:51;16.40;99.90
38428;DHT22;24211;49.980;19.776;2024-02-16T15:21:44;16.50;99.90
38428;DHT22;24211;49.980;19.776;2024-02-16T15:24:11;16.50;99.90
38428;DHT22;24211;49.980;19.776;2024-02-16T15:34:32;16.10;99.90
38428;DHT22;24211;49.980;19.776;2024-02-16T15:37:29;16.50;99.90
38428;DHT22;24211;49.980;19.776;2024-02-16T15:39:57;16.70;99.90
38428;DHT22;24211;49.980;19.776;2024-02-16T15:42:28;16.80;99.90
38428;DHT22;24211;49.980;19.776;2024-02-16T15:45:01;16.90;99.90
38428;DHT22;24211;49.980;19.776;2024-02-16T15:47:31;16.90;99.90
38428;DHT22;24211;49.980;19.776;2024-02-16T15:49:58;16.90;99.90
38428;DHT22;24211;49.980;19.776;2024-02-16T15:52:26;16.90;99.90
38428;DHT22;24211;49.980;19.776;2024-02-16T15:54:54;16.80;99.90
38428;DHT22;24211;49.980;19.776;2024-02-16T15:57:21;16.80;99.90
38428;DHT22;24211;49.980;19.776;2024-02-16T15:59:48;16.70;99.90
38428;DHT22;24211;49.980;19.776;2024-02-16T16:02:31;16.60;99.90
38428;DHT22;24211;49.980;19.776;2024-02-16T16:05:00;16.60;99.90
38428;DHT22;24211;49.980;19.776;2024-02-16T16:07:29;16.50;99.90
38428;DHT22;24211;49.980;19.776;2024-02-16T16:09:58;16.50;99.90
38428;DHT22;24211;49.980;19.776;2024-02-16T16:12:25;16.40;99.90
38428;DHT22;24211;49.980;19.776;2024-02-16T16:14:53;16.30;99.90
38428;DHT22;24211;49.980;19.776;2024-02-16T16:17:45;16.30;99.90
38428;DHT22;24211;49.980;19.776;2024-02-16T16:20:13;16.30;99.90
38428;DHT22;24211;49.980;19.776;2024-02-16T16:22:40;16.20;99.90
38428;DHT22;24211;49.980;19.776;2024-02-16T16:25:39;16.10;99.90
38428;DHT22;24211;49.980;19.776;2024-02-16T16:28:06;16.00;99.90
38428;DHT22;24211;49.980;19.776;2024-02-16T16:30:34;15.90;99.90
38428;DHT22;24211;49.980;19.776;2024-02-16T16:33:01;15.90;99.90
38428;DHT22;24211;49.980;19.776;2024-02-16T16:35:29;15.80;99.90
38428;DHT22;24211;49.980;19.776;2024-02-16T16:38:00;15.70;99.90
38428;DHT22;24211;49.980;19.776;2024-02-16T16:40:28;15.60;99.90
38428;DHT22;24211;49.980;19.776;2024-02-16T16:42:56;15.60;99.90
38428;DHT22;24211;49.980;19.776;2024-02-16T16:45:24;15.50;99.90
38428;DHT22;24211;49.980;19.776;2024-02-16T16:47:54;15.40;99.90
38428;DHT22;24211;49.980;19.776;2024-02-16T16:50:23;15.30;99.90
38428;DHT22;24211;49.980;19.776;2024-02-16T16:53:25;15.30;99.90
38428;DHT22;24211;49.980;19.776;2024-02-16T16:55:55;15.10;99.90
38428;DHT22;24211;49.980;19.776;2024-02-16T16:58:28;15.10;99.90
38428;DHT22;24211;49.980;19.776;2024-02-16T17:00:57;15.00;99.90